Terminal Aerodrome Forecast
Issued by NWS

Home | Current Version | Previous Version | Text Only | Print | Product List | Glossary On
Versions: 1 2 3 4 5 6 7 8 9 10 11 12 13
000
FTUS43 KIWX 171439 AAA
TAFSBN
TAF AMD
KSBN 171439Z 1715/1812 19010KT P6SM VCSH OVC035
      TEMPO 1715/1718 OVC015
     FM171900 25014G22KT P6SM BKN050
     FM172300 24010KT P6SM SCT110=

USA.gov is the U.S. government's official web portal to all federal, state and local government web resources and services.